• Join FlightAware (Why Join?)
  • Login
  • US Flag 
05:34PM EST


 

Airport Tracker/Info


-or-


 

Live Flight TrackerFlight Track Log ✈ DAL268 ✈ 24-Aug-2013 ✈ KSFO - KJFK

Flight Track Log - Related Links

Times and Time Zones

All times are in EDT time to prevent confusion due to time zone crossing. See the DAL268 flight status page for this flight to view local times or setup timezone preferences in your user account.

Time Position Orientation Groundspeed Altitude Reporting Facility
EDT Latitude Longitude Course Direction KTS MPH feet Rate Location/Type
02:46PM 37.6060 -122.3820 142° Southeast  Level FlightAware
02:49PM 37.6956 -122.0965 67° East  Level FlightAware Approximate
02:50PM 37.7456 -121.9664 65° Northeast  Level FlightAware Approximate
02:51PM 37.7934 -121.8348 65° Northeast  Level FlightAware Approximate
02:53PM 37.6774 -122.1511 67° East  Level FlightAware Approximate
02:53PM 37.6100 -122.3780 38° Northeast 92 106  Level FlightAware
02:54PM 37.6180 -122.3730 26° Northeast 155 178 1,440 Level FlightAware
02:54PM 37.6345 -122.3620 28° Northeast 174 200 900 2,280 Climbing FlightAware ADS-B
02:54PM 37.6397 -122.3570 37° Northeast 176 203 1,200 1,980 Climbing FlightAware ADS-B
02:54PM 37.6415 -122.3540 53° Northeast 183 211 1,300 1,980 Climbing FlightAware ADS-B
02:54PM 37.6441 -122.3500 51° Northeast 188 216 1,500 2,220 Climbing FlightAware ADS-B
02:55PM 37.6502 -122.3390 55° Northeast 199 229 1,900 1,620 Climbing FlightAware ADS-B
02:55PM 37.6536 -122.3330 54° Northeast 210 242 2,000 1,380 Climbing FlightAware ADS-B
02:55PM 37.6598 -122.3230 52° Northeast 225 259 2,300 1,680 Climbing FlightAware ADS-B
02:55PM 37.6701 -122.3060 53° Northeast 244 281 2,700 1,680 Climbing FlightAware ADS-B
02:55PM 37.6818 -122.2860 54° Northeast 261 300 3,200 2,460 Climbing FlightAware ADS-B
02:56PM 37.6948 -122.2650 52° Northeast 270 311 4,100 3,180 Climbing FlightAware ADS-B
02:56PM 37.7038 -122.2510 51° Northeast 271 312 4,700 2,760 Climbing FlightAware ADS-B
02:56PM 37.7174 -122.2300 51° Northeast 278 320 5,400 2,640 Climbing FlightAware ADS-B
02:56PM 37.7238 -122.2200 51° Northeast 281 323 5,800 3,120 Climbing FlightAware ADS-B
02:56PM 37.7319 -122.2050 56° Northeast 282 325 6,400 3,000 Climbing FlightAware ADS-B
02:56PM 37.7340 -122.2000 62° Northeast 285 328 6,500 2,760 Climbing FlightAware ADS-B
02:57PM 37.7394 -122.1860 64° Northeast 287 330 7,000 3,000 Climbing FlightAware ADS-B
02:57PM 37.7419 -122.1770 71° East 287 330 7,300 2,400 Climbing FlightAware ADS-B
02:57PM 37.7487 -122.1510 72° East 298 343 7,900 2,880 Climbing FlightAware ADS-B
02:57PM 37.7532 -122.1350 70° East 296 341 8,500 3,360 Climbing FlightAware ADS-B
02:57PM 37.7606 -122.1100 69° East 296 341 9,300 2,580 Climbing FlightAware ADS-B
02:58PM 37.7757 -122.0600 69° East 309 356 10,500 1,620 Climbing FlightAware ADS-B
02:58PM 37.7919 -122.0040 70° East 349 402 11,000 1,020 Climbing FlightAware ADS-B
02:59PM 37.8103 -121.9400 70° East 381 438 11,600 1,620 Climbing FlightAware ADS-B
02:59PM 37.8288 -121.8750 70° East 393 452 12,700 2,280 Climbing FlightAware ADS-B
03:00PM 37.8475 -121.8090 70° East 401 461 13,900 2,280 Climbing FlightAware ADS-B
03:00PM 37.8666 -121.7430 70° East 408 470 15,000 2,220 Climbing FlightAware ADS-B
03:01PM 37.8865 -121.6730 70° East 414 476 16,200 2,220 Climbing FlightAware ADS-B
03:01PM 37.9066 -121.6020 70° East 424 488 17,300 2,040 Climbing FlightAware ADS-B
03:02PM 37.9343 -121.5040 70° East 430 495 18,700 1,980 Climbing FlightAware ADS-B
03:03PM 37.9549 -121.4310 70° East 437 503 19,700 1,860 Climbing FlightAware ADS-B
03:03PM 37.9770 -121.3520 70° East 443 510 20,700 1,680 Climbing FlightAware
03:04PM 38.0030 -121.2620 70° East 451 519 21,700 1,620 Climbing FlightAware
03:04PM 38.0260 -121.1770 71° East 461 531 22,600 2,040 Climbing FlightAware
03:05PM 38.0520 -121.0830 71° East 453 521 24,100 2,700 Climbing FlightAware
03:06PM 38.0770 -120.9960 70° East 440 506 25,900 2,040 Climbing FlightAware
03:06PM 38.0980 -120.9080 73° East 451 519 26,600 900 Climbing FlightAware
03:07PM 38.1200 -120.8140 73° East 469 540 27,000 540 Climbing FlightAware
03:07PM 38.1410 -120.7170 75° East 484 557 27,300 780 Climbing FlightAware
03:08PM 38.1550 -120.6280 79° East 491 565 27,900 1,020 Climbing FlightAware
03:09PM 38.1730 -120.5260 77° East 497 572 28,500 1,440 Climbing FlightAware
03:09PM 38.1900 -120.4280 78° East 492 566 29,600 1,800 Climbing FlightAware
03:10PM 38.2070 -120.3340 77° East 489 563 30,600 1,680 Climbing FlightAware
03:10PM 38.2250 -120.2320 77° East 485 558 31,600 1,620 Climbing FlightAware
03:11PM 38.2430 -120.1320 77° East 479 551 32,600 1,500 Climbing FlightAware
03:11PM 38.2580 -120.0500 77° East 477 549 33,300 1,320 Climbing FlightAware
03:12PM 38.2750 -119.9510 78° East 475 547 34,100 1,200 Climbing FlightAware
03:13PM 38.2930 -119.8520 77° East 475 547 34,800 1,080 Climbing FlightAware
03:13PM 38.3090 -119.7550 78° East 474 545 35,400 960 Climbing FlightAware
03:14PM 38.3270 -119.6550 77° East 475 547 36,000 900 Climbing FlightAware
03:14PM 38.3410 -119.5670 79° East 476 548 36,500 840 Climbing FlightAware
03:15PM 38.3580 -119.4690 77° East 476 548 37,000 360 Climbing FlightAware
03:16PM 38.3760 -119.3660 77° East 473 544 37,000  Level FlightAware
03:16PM 38.3890 -119.2840 79° East 472 543 37,000  Level FlightAware
03:17PM 38.4070 -119.1810 77° East 476 548 37,000  Level FlightAware
03:17PM 38.4230 -119.0820 78° East 475 547 37,000  Level FlightAware
03:18PM 38.4390 -118.9850 78° East 472 543 37,000  Level FlightAware
03:18PM 38.4550 -118.8860 78° East 471 542 37,000  Level FlightAware
03:19PM 38.4720 -118.7810 78° East 471 542 37,000  Level FlightAware
03:20PM 38.4870 -118.6880 78° East 471 542 37,000  Level FlightAware
03:20PM 38.5030 -118.5850 79° East 472 543 37,000  Level FlightAware
03:21PM 38.5170 -118.5010 78° East 473 544 37,000  Level FlightAware
03:22PM 38.5340 -118.3890 79° East 475 547 37,000  Level FlightAware
03:22PM 38.5480 -118.3020 78° East 477 549 37,000  Level FlightAware
03:23PM 38.5630 -118.2040 79° East 478 550 37,000  Level FlightAware
03:23PM 38.5790 -118.1030 79° East 479 551 37,000  Level FlightAware
03:24PM 38.5930 -118.0100 79° East 479 551 37,000  Level FlightAware
03:24PM 38.6080 -117.9180 78° East 479 551 37,000  Level FlightAware
03:25PM 38.6220 -117.8340 78° East 479 551 37,000  Level FlightAware
03:26PM 38.6360 -117.7490 78° East 479 551 37,000  Level FlightAware
03:26PM 38.6510 -117.6610 78° East 479 551 37,000  Level FlightAware
03:27PM 38.6650 -117.5740 78° East 479 551 37,000  Level FlightAware
03:28PM 38.6790 -117.4890 78° East 479 551 37,000  Level FlightAware
03:28PM 38.6940 -117.4020 78° East 479 551 37,000  Level FlightAware
03:29PM 38.7080 -117.3140 78° East 479 551 37,000  Level FlightAware
03:29PM 38.7220 -117.2290 78° East 479 551 37,000  Level FlightAware
03:30PM 38.7360 -117.1440 78° East 479 551 37,000  Level FlightAware
03:31PM 38.7510 -117.0570 78° East 479 551 37,000  Level FlightAware
03:31PM 38.7650 -116.9720 78° East 479 551 37,000  Level FlightAware
03:32PM 38.7780 -116.8920 78° East 479 551 37,000  Level FlightAware
03:32PM 38.7920 -116.8060 78° East 479 551 37,000  Level FlightAware
03:33PM 38.8070 -116.7210 77° East 479 551 37,000  Level FlightAware
03:34PM 38.8210 -116.6360 78° East 479 551 37,000  Level FlightAware
03:34PM 39.3356 -116.4358 78° East 506 582 37,000  Level Salt Lake Center
03:35PM 39.4317 -116.3136 44° Northeast 507 583 37,000  Level Salt Lake Center
03:36PM 39.5425 -116.1717 45° Northeast 505 581 37,000  Level Salt Lake Center
03:37PM 39.6378 -116.0506 44° Northeast 503 579 37,000  Level Salt Lake Center
03:44PM 40.2608 -115.2180 44° Northeast 517 595 37,000  Level FlightAware ADS-B
03:44PM 40.3216 -115.1190 51° Northeast 518 596 37,000  Level FlightAware ADS-B
03:45PM 40.3672 -115.0460 51° Northeast 519 597 37,000  Level FlightAware ADS-B
03:45PM 40.4130 -114.9720 51° Northeast 520 598 37,000  Level FlightAware ADS-B
03:46PM 40.4626 -114.8930 50° Northeast 520 598 37,000  Level FlightAware ADS-B
03:47PM 40.5624 -114.7280 51° Northeast 519 597 37,000  Level FlightAware ADS-B
03:47PM 40.6053 -114.6520 53° Northeast 518 596 37,000  Level FlightAware ADS-B
03:48PM 40.6505 -114.5730 53° Northeast 520 598 37,000  Level FlightAware ADS-B
03:48PM 40.6938 -114.4970 53° Northeast 521 600 37,000  Level FlightAware ADS-B
03:49PM 40.7372 -114.4200 53° Northeast 523 602 37,000  Level FlightAware ADS-B
03:49PM 40.7812 -114.3440 53° Northeast 523 602 37,000  Level FlightAware ADS-B
03:50PM 40.8314 -114.2570 53° Northeast 522 601 37,000  Level FlightAware ADS-B
03:51PM 40.8791 -114.1760 52° Northeast 520 598 37,000  Level FlightAware ADS-B
03:51PM 40.9030 -114.1360 52° Northeast 520 598 37,000  Level FlightAware ADS-B
03:51PM 40.9489 -114.0620 51° Northeast 520 598 37,000  Level FlightAware ADS-B
03:52PM 40.9950 -113.9870 51° Northeast 519 597 37,000  Level FlightAware ADS-B
03:52PM 41.0339 -113.9250 50° Northeast 519 597 37,000  Level FlightAware ADS-B
03:53PM 41.0799 -113.8450 53° Northeast 519 597 37,000  Level FlightAware ADS-B
03:53PM 41.1247 -113.7660 53° Northeast 520 598 37,000  Level FlightAware ADS-B
03:54PM 41.1470 -113.7220 56° Northeast 514 592 37,000  Level FlightAware ADS-B
03:54PM 41.1593 -113.6910 62° Northeast 510 587 37,000  Level FlightAware ADS-B
03:54PM 41.1886 -113.6050 66° East 508 585 37,000  Level FlightAware ADS-B
03:55PM 41.2170 -113.5190 66° East 507 583 37,000  Level FlightAware ADS-B
03:55PM 41.2521 -113.4120 66° East 507 583 37,000  Level FlightAware ADS-B
03:56PM 41.2788 -113.3240 68° East 504 580 37,000  Level FlightAware ADS-B
03:57PM 41.3127 -113.2100 68° East 506 582 37,000  Level FlightAware ADS-B
03:57PM 41.3390 -113.1220 68° East 506 582 37,000  Level FlightAware ADS-B
03:57PM 41.3475 -113.0930 69° East 505 581 37,000  Level FlightAware ADS-B
03:58PM 41.3589 -113.0460 72° East 502 578 37,000  Level FlightAware ADS-B
03:58PM 41.3662 -113.0040 77° East 497 572 37,000  Level FlightAware ADS-B
03:58PM 41.3794 -112.9150 79° East 501 577 37,000  Level FlightAware ADS-B
03:59PM 41.4032 -112.8020 74° East 505 581 37,000  Level FlightAware ADS-B
04:00PM 41.4337 -112.6560 74° East 507 583 37,000  Level FlightAware ADS-B
04:00PM 41.4543 -112.5480 76° East 509 586 37,000  Level FlightAware ADS-B
04:01PM 41.4723 -112.4540 76° East 510 587 37,000  Level FlightAware ADS-B
04:01PM 41.4919 -112.3500 76° East 512 589 37,000  Level FlightAware ADS-B
04:02PM 41.5094 -112.2570 76° East 513 590 37,000  Level FlightAware ADS-B
04:03PM 41.5321 -112.1360 76° East 514 592 37,000  Level FlightAware ADS-B
04:03PM 41.5492 -112.0430 76° East 515 593 37,000  Level FlightAware ADS-B
04:04PM 41.5688 -111.9380 76° East 515 593 37,000  Level FlightAware ADS-B
04:04PM 41.5872 -111.8390 76° East 514 592 37,000  Level FlightAware ADS-B
04:05PM 41.6064 -111.7350 76° East 514 592 37,000  Level FlightAware ADS-B
04:05PM 41.6251 -111.6200 78° East 511 588 37,000  Level FlightAware ADS-B
04:06PM 41.6361 -111.5270 81° East 510 587 37,000  Level FlightAware ADS-B
04:06PM 41.6462 -111.4280 82° East 511 588 37,000  Level FlightAware ADS-B
04:07PM 41.6529 -111.3570 83° East 509 586 37,000  Level FlightAware ADS-B
04:07PM 41.6592 -111.2620 85° East 506 582 37,000  Level FlightAware ADS-B
04:08PM 41.6645 -111.1680 86° East 505 581 37,000  Level FlightAware ADS-B
04:08PM 41.6700 -111.0730 86° East 506 582 37,000  Level FlightAware ADS-B
04:09PM 41.6756 -110.9790 85° East 507 583 37,000  Level FlightAware ADS-B
04:09PM 41.6815 -110.8830 85° East 507 583 37,000  Level FlightAware ADS-B
04:10PM 41.6873 -110.7890 85° East 506 582 37,000  Level FlightAware ADS-B
04:10PM 41.6930 -110.6940 85° East 506 582 37,000  Level FlightAware ADS-B
04:11PM 41.7031 -110.5158 85° East 504 580 37,000  Level Salt Lake Center
04:12PM 41.7192 -110.3064 84° East 506 582 37,000  Level Salt Lake Center
04:14PM 41.7475 -110.1292 78° East 508 585 37,000  Level Salt Lake Center
04:15PM 41.7797 -109.9228 78° East 507 583 37,000  Level Salt Lake Center
04:16PM 41.8075 -109.7458 78° East 507 583 37,000  Level Salt Lake Center
04:17PM 41.8383 -109.5389 79° East 505 581 37,000  Level Salt Lake Center
04:18PM 41.8656 -109.3611 78° East 506 582 37,000  Level Salt Lake Center
04:19PM 41.8906 -109.1825 79° East 506 582 37,000  Level Salt Lake Center
04:20PM 41.9031 -108.9742 85° East 500 575 37,000  Level Salt Lake Center
04:21PM 41.9069 -108.7953 88° East 499 574 37,000  Level Salt Lake Center
04:22PM 41.9111 -108.5856 88° East 500 575 37,000  Level Salt Lake Center
04:23PM 41.9150 -108.4067 88° East 500 575 37,000  Level Salt Lake Center
04:24PM 41.9175 -108.2281 89° East 501 577 37,000  Level Salt Lake Center
04:25PM 41.9197 -108.0175 89° East 506 582 37,000  Level Salt Lake Center
04:26PM 41.9219 -107.8369 89° East 505 581 37,000  Level Salt Lake Center
04:27PM 41.9250 -107.6258 89° East 508 585 37,000  Level Salt Lake Center
04:32PM 41.9300 -106.5840 89° East 499 574 37,000  Level FlightAware
04:33PM 41.9310 -106.4460 89° East 498 573 37,000  Level FlightAware
04:34PM 41.9310 -106.3390 90° East 497 572 37,000  Level FlightAware
04:35PM 41.9300 -106.1960 90° East 494 568 37,000  Level FlightAware
04:35PM 41.9300 -106.0890 90° East 491 565 37,000  Level FlightAware
04:36PM 41.9300 -105.9810 90° East 489 563 37,000  Level FlightAware
04:36PM 41.9290 -105.8790 91° East 484 557 37,000  Level FlightAware
04:37PM 41.9290 -105.7740 90° East 480 552 37,000  Level FlightAware
04:37PM 41.9280 -105.6740 91° East 476 548 37,000  Level FlightAware
04:38PM 41.9280 -105.5270 90° East 474 545 37,000  Level FlightAware
04:39PM 41.9200 -105.4000 95° East 474 545 37,000  Level FlightAware
04:40PM 41.9210 -105.2980 89° East 478 550 37,000  Level FlightAware
04:40PM 41.9235 -105.2510 86° East 479 551 37,000  Level FlightAware ADS-B
04:40PM 41.9263 -105.2090 85° East 480 552 37,000  Level FlightAware ADS-B
04:40PM 41.9323 -105.1320 84° East 482 555 37,000  Level FlightAware ADS-B
04:41PM 41.9407 -105.0450 83° East 482 555 37,000  Level FlightAware ADS-B
04:41PM 41.9462 -104.9550 85° East 482 555 37,000  Level FlightAware ADS-B
04:42PM 41.9490 -104.9180 84° East 483 556 37,000  Level FlightAware ADS-B
04:42PM 41.9587 -104.8270 82° East 486 559 37,000  Level FlightAware ADS-B
04:43PM 41.9689 -104.7360 81° East 486 559 37,000  Level FlightAware ADS-B
04:43PM 41.9789 -104.6440 82° East 486 559 37,000  Level FlightAware ADS-B
04:44PM 41.9884 -104.5540 82° East 486 559 37,000  Level FlightAware ADS-B
04:44PM 41.9978 -104.4630 82° East 485 558 37,000  Level FlightAware ADS-B
04:45PM 42.0077 -104.3660 82° East 485 558 37,000  Level FlightAware ADS-B
04:45PM 42.0167 -104.2760 82° East 484 557 37,000  Level FlightAware ADS-B
04:46PM 42.0257 -104.1860 82° East 484 557 37,000  Level FlightAware ADS-B
04:46PM 42.0347 -104.0970 82° East 485 558 37,000  Level FlightAware ADS-B
04:47PM 42.0436 -104.0070 82° East 485 558 37,000  Level FlightAware ADS-B
04:47PM 42.0527 -103.9140 82° East 484 557 37,000  Level FlightAware ADS-B
04:48PM 42.0616 -103.8230 82° East 485 558 37,000  Level FlightAware ADS-B
04:48PM 42.0704 -103.7330 82° East 485 558 37,000  Level FlightAware ADS-B
04:49PM 42.0790 -103.6430 83° East 485 558 37,000  Level FlightAware ADS-B
04:49PM 42.0878 -103.5510 83° East 486 559 37,000  Level FlightAware ADS-B
04:50PM 42.0964 -103.4600 83° East 485 558 37,000  Level FlightAware ADS-B
04:50PM 42.1052 -103.3700 82° East 485 558 37,000  Level FlightAware ADS-B
04:51PM 42.1139 -103.2800 83° East 485 558 37,000  Level FlightAware ADS-B
04:51PM 42.1225 -103.1890 83° East 484 557 37,000  Level FlightAware ADS-B
04:52PM 42.1309 -103.1000 83° East 483 556 37,000  Level FlightAware ADS-B
04:52PM 42.1393 -103.0090 83° East 483 556 37,000  Level FlightAware ADS-B
04:53PM 42.1478 -102.9170 83° East 483 556 37,000  Level FlightAware ADS-B
04:53PM 42.1562 -102.8260 83° East 483 556 37,000  Level FlightAware ADS-B
04:54PM 42.1643 -102.7360 83° East 482 555 37,000  Level FlightAware ADS-B
04:54PM 42.1725 -102.6460 83° East 482 555 37,000  Level FlightAware ADS-B
04:55PM 42.1806 -102.5540 83° East 481 554 37,000  Level FlightAware ADS-B
04:55PM 42.1888 -102.4620 83° East 480 552 37,000  Level FlightAware ADS-B
04:56PM 42.1996 -102.3370 83° East 479 551 37,000  Level FlightAware ADS-B
04:57PM 42.2114 -102.2000 83° East 479 551 37,000  Level FlightAware ADS-B
04:57PM 42.2196 -102.1040 83° East 478 550 37,000  Level FlightAware ADS-B
04:58PM 42.2308 -101.9658 83° East 476 548 37,000  Level Minneapolis Center
04:59PM 42.2447 -101.7883 84° East 476 548 37,000  Level Minneapolis Center
05:00PM 42.2597 -101.6117 83° East 476 548 37,000  Level Minneapolis Center
05:01PM 42.2736 -101.4333 84° East 477 549 37,000  Level Minneapolis Center
05:02PM 42.2881 -101.2542 84° East 479 551 37,000  Level Minneapolis Center
05:03PM 42.3019 -101.0761 84° East 478 550 37,000 120 Level Minneapolis Center
05:04PM 42.3144 -100.8992 84° East 476 548 37,300 720 Climbing Minneapolis Center
05:05PM 42.3300 -100.6881 84° East 472 543 38,500 780 Climbing Denver Center
05:07PM 42.3431 -100.5178 84° East 474 545 39,000 240 Climbing Denver Center
05:08PM 42.3547 -100.3350 85° East 471 542 39,000  Level Minneapolis Center
05:09PM 42.3669 -100.1611 85° East 466 536 39,000  Level Minneapolis Center
05:10PM 42.3789 -99.9892 85° East 462 532 39,000  Level Minneapolis Center
05:11PM 42.3894 -99.8178 85° East 459 528 39,000  Level Minneapolis Center
05:12PM 42.4011 -99.6433 85° East 460 529 39,000  Level Denver Center
05:13PM 42.4111 -99.4694 85° East 463 533 39,000  Level Denver Center
05:14PM 42.4214 -99.3303 84° East 468 539 39,000  Level Minneapolis Center
05:15PM 42.4356 -99.0814 86° East 471 542 39,000  Level Minneapolis Center
05:16PM 42.4450 -98.9028 86° East 474 545 39,000  Level Minneapolis Center
05:17PM 42.4556 -98.7253 85° East 472 543 39,000  Level Minneapolis Center
05:18PM 42.4658 -98.5461 85° East 474 545 39,000  Level Minneapolis Center
05:23PM 42.5120 -97.5690 85° East 473 544 39,000  Level FlightAware
05:24PM 42.5170 -97.4690 86° East 471 542 39,000  Level FlightAware
05:24PM 42.5210 -97.3650 87° East 470 541 39,000  Level FlightAware
05:25PM 42.5260 -97.2600 86° East 469 540 39,000  Level FlightAware
05:25PM 42.5300 -97.1630 87° East 469 540 39,000  Level FlightAware
05:26PM 42.5340 -97.0590 87° East 469 540 39,000  Level FlightAware
05:27PM 42.5380 -96.9530 87° East 469 540 39,000  Level FlightAware
05:27PM 42.5420 -96.8470 87° East 468 539 39,000  Level FlightAware
05:28PM 42.5460 -96.7400 87° East 467 537 39,000  Level FlightAware
05:28PM 42.5500 -96.6470 87° East 467 537 39,000  Level FlightAware
05:29PM 42.5540 -96.5400 87° East 468 539 39,000  Level FlightAware
05:30PM 42.5570 -96.4510 87° East 468 539 39,000  Level FlightAware
05:30PM 42.5610 -96.3350 87° East 468 539 39,000  Level FlightAware
05:31PM 42.5640 -96.2310 88° East 468 539 39,000  Level FlightAware
05:31PM 42.5680 -96.1240 87° East 469 540 39,000  Level FlightAware
05:32PM 42.5700 -96.0330 88° East 468 539 39,000  Level FlightAware
05:33PM 42.5740 -95.9300 87° East 467 537 39,000  Level FlightAware
05:33PM 42.5770 -95.8210 88° East 467 537 39,000  Level FlightAware
05:34PM 42.5800 -95.7160 88° East 466 536 39,000  Level FlightAware
05:34PM 42.5820 -95.6220 88° East 466 536 39,000  Level FlightAware
05:35PM 42.5850 -95.5170 88° East 466 536 39,000  Level FlightAware
05:35PM 42.5880 -95.4130 88° East 466 536 39,000  Level FlightAware
05:36PM 42.5910 -95.3070 88° East 465 535 39,000  Level FlightAware
05:37PM 42.5930 -95.1980 89° East 465 535 39,000  Level FlightAware
05:37PM 42.5960 -95.0850 88° East 465 535 39,000  Level FlightAware
05:38PM 42.5980 -94.9800 88° East 466 536 39,000  Level FlightAware
05:38PM 42.6000 -94.8890 88° East 467 537 39,000  Level FlightAware
05:39PM 42.6020 -94.7840 88° East 467 537 39,000  Level FlightAware
05:40PM 42.6040 -94.6780 88° East 468 539 39,000  Level FlightAware
05:40PM 42.6060 -94.5720 88° East 469 540 39,000  Level FlightAware
05:41PM 42.6080 -94.4720 88° East 470 541 39,000  Level FlightAware
05:41PM 42.6100 -94.3650 89° East 470 541 39,000  Level FlightAware
05:42PM 42.6130 -94.2720 87° East 470 541 39,000  Level FlightAware
05:43PM 42.6130 -94.1690 90° East 471 542 39,000  Level FlightAware
05:43PM 42.6130 -94.0610 90° East 471 542 39,000  Level FlightAware
05:44PM 42.6130 -93.9560 90° East 471 542 39,000  Level FlightAware
05:44PM 42.6140 -93.8350 89° East 471 542 39,000  Level FlightAware
05:45PM 42.6150 -93.7290 89° East 471 542 39,000  Level FlightAware
05:46PM 42.6160 -93.6370 89° East 471 542 39,000  Level FlightAware
05:46PM 42.6160 -93.5250 90° East 471 542 39,000  Level FlightAware
05:47PM 42.6160 -93.4190 90° East 471 542 39,000  Level FlightAware
05:47PM 42.6170 -93.3180 89° East 472 543 39,000  Level FlightAware
05:48PM 42.6170 -93.2210 90° East 472 543 39,000  Level FlightAware
05:48PM 42.6170 -93.1200 90° East 472 543 39,000  Level FlightAware
05:49PM 42.6170 -93.0210 90° East 472 543 39,000  Level FlightAware
05:50PM 42.6160 -92.8890 91° East 472 543 39,000  Level FlightAware
05:50PM 42.6160 -92.7830 90° East 472 543 39,000  Level FlightAware
05:51PM 42.6160 -92.6780 90° East 471 542 39,000  Level FlightAware
05:52PM 42.6150 -92.5730 91° East 470 541 39,000  Level FlightAware
05:52PM 42.6150 -92.4770 90° East 469 540 39,000  Level FlightAware
05:53PM 42.6140 -92.3740 91° East 468 539 39,000  Level FlightAware
05:53PM 42.6130 -92.2680 91° East 467 537 39,000  Level FlightAware
05:54PM 42.6120 -92.1750 91° East 466 536 39,000  Level FlightAware
05:54PM 42.6110 -92.0670 91° East 465 535 39,000  Level FlightAware
05:55PM 42.6100 -91.9650 91° East 464 534 39,000  Level FlightAware
05:56PM 42.6090 -91.8590 91° East 464 534 39,000  Level FlightAware
05:56PM 42.6080 -91.7550 91° East 464 534 39,000  Level FlightAware
05:57PM 42.6070 -91.6650 91° East 465 535 39,000  Level FlightAware
05:57PM 42.6050 -91.5500 91° East 465 535 39,000  Level FlightAware
05:58PM 42.6040 -91.4620 91° East 466 536 39,000  Level FlightAware
05:59PM 42.6020 -91.3540 91° East 466 536 39,000  Level FlightAware
05:59PM 42.6010 -91.2470 91° East 466 536 39,000  Level FlightAware
06:00PM 42.5990 -91.1430 91° East 467 537 39,000  Level FlightAware
06:00PM 42.5970 -91.0380 91° East 469 540 39,000  Level FlightAware
06:01PM 42.5950 -90.9480 92° East 469 540 39,000  Level FlightAware
06:01PM 42.5930 -90.8400 91° East 470 541 39,000  Level FlightAware
06:02PM 42.5910 -90.7310 91° East 471 542 39,000  Level FlightAware
06:03PM 42.5890 -90.6470 92° East 471 542 39,000  Level FlightAware
06:03PM 42.5860 -90.5370 92° East 472 543 39,000  Level FlightAware
06:04PM 42.5840 -90.4320 91° East 472 543 39,000  Level FlightAware
06:04PM 42.5810 -90.3250 92° East 471 542 39,000  Level FlightAware
06:05PM 42.5790 -90.2190 91° East 470 541 39,000  Level FlightAware
06:06PM 42.5760 -90.1140 92° East 470 541 39,000  Level FlightAware
06:06PM 42.5730 -90.0220 93° East 470 541 39,000  Level FlightAware
06:07PM 42.5700 -89.9160 92° East 470 541 39,000  Level FlightAware
06:07PM 42.5670 -89.8110 92° East 469 540 39,000  Level FlightAware
06:08PM 42.5640 -89.7080 92° East 467 537 39,000  Level FlightAware
06:09PM 42.5610 -89.5900 92° East 466 536 39,000  Level FlightAware
06:09PM 42.5570 -89.4860 93° East 465 535 39,000  Level FlightAware
06:10PM 42.5540 -89.3790 92° East 463 533 39,000  Level FlightAware
06:10PM 42.5510 -89.2830 92° East 460 529 39,000  Level FlightAware
06:11PM 42.5470 -89.1800 93° East 458 527 39,000  Level FlightAware
06:11PM 42.5440 -89.0890 93° East 456 525 39,000  Level FlightAware
06:12PM 42.5400 -88.9860 93° East 455 524 39,000  Level FlightAware
06:13PM 42.5360 -88.8840 93° East 452 520 39,000  Level FlightAware
06:13PM 42.5330 -88.7960 93° East 450 518 39,000  Level FlightAware
06:14PM 42.5290 -88.6920 93° East 448 516 39,000  Level FlightAware
06:14PM 42.5250 -88.5820 93° East 446 513 39,000  Level FlightAware
06:15PM 42.5210 -88.4860 93° East 444 511 39,000  Level FlightAware
06:16PM 42.5170 -88.3980 93° East 443 510 39,000  Level FlightAware
06:16PM 42.5130 -88.2980 93° East 443 510 39,000  Level FlightAware
06:17PM 42.5090 -88.1980 93° East 443 510 39,000  Level FlightAware
06:17PM 42.5050 -88.1120 94° East 443 510 39,000  Level FlightAware
06:18PM 42.5010 -88.0090 93° East 442 509 39,000  Level FlightAware
06:19PM 42.5000 -87.9030 91° East 442 509 39,000  Level FlightAware
06:19PM 42.5000 -87.8160 90° East 443 510 39,000  Level FlightAware
06:20PM 42.5000 -87.7160 90° East 444 511 39,000  Level FlightAware
06:20PM 42.5000 -87.6260 90° East 446 513 39,000  Level FlightAware
06:21PM 42.4990 -87.5320 91° East 447 514 39,000  Level FlightAware
06:21PM 42.4990 -87.4310 90° East 448 516 39,000  Level FlightAware
06:22PM 42.4980 -87.3210 91° East 448 516 39,000  Level FlightAware
06:23PM 42.4970 -87.2080 91° East 448 516 39,000  Level FlightAware
06:23PM 42.4970 -87.1080 90° East 448 516 39,000  Level FlightAware
06:24PM 42.4960 -87.0170 91° East 448 516 39,000  Level FlightAware
06:24PM 42.4950 -86.9250 91° East 448 516 39,000  Level FlightAware
06:25PM 42.4940 -86.8170 91° East 448 516 39,000  Level FlightAware
06:26PM 42.4930 -86.7210 91° East 447 514 39,000  Level FlightAware
06:26PM 42.4920 -86.6210 91° East 447 514 39,000  Level FlightAware
06:27PM 42.4910 -86.5260 91° East 447 514 39,000  Level FlightAware
06:27PM 42.4900 -86.4200 91° East 448 516 39,000  Level FlightAware
06:28PM 42.4880 -86.3200 92° East 448 516 39,000  Level FlightAware
06:29PM 42.4870 -86.2280 91° East 448 516 39,000  Level FlightAware
06:29PM 42.4850 -86.1360 92° East 448 516 39,000  Level FlightAware
06:30PM 42.4840 -86.0390 91° East 448 516 39,000  Level FlightAware
06:30PM 42.4820 -85.9360 91° East 449 517 39,000  Level FlightAware
06:31PM 42.4800 -85.8360 92° East 450 518 39,000  Level FlightAware
06:31PM 42.4780 -85.7340 91° East 451 519 39,000  Level FlightAware
06:32PM 42.4760 -85.6350 92° East 453 521 39,000  Level FlightAware
06:33PM 42.4750 -85.5510 91° East 454 522 39,000  Level FlightAware
06:33PM 42.4720 -85.4430 92° East 455 524 39,000  Level FlightAware
06:34PM 42.4700 -85.3440 92° East 457 526 39,000  Level FlightAware
06:34PM 42.4680 -85.2370 91° East 458 527 39,000  Level FlightAware
06:35PM 42.4650 -85.1510 93° East 459 528 39,000  Level FlightAware
06:36PM 42.4630 -85.0450 91° East 459 528 39,000  Level FlightAware
06:36PM 42.4600 -84.9530 92° East 459 528 39,000  Level FlightAware
06:37PM 42.4580 -84.8520 92° East 458 527 39,000  Level FlightAware
06:37PM 42.4540 -84.7360 93° East 457 526 39,000  Level FlightAware
06:38PM 42.4520 -84.6400 92° East 456 525 39,000  Level FlightAware
06:38PM 42.4490 -84.5510 93° East 455 524 39,000  Level FlightAware
06:39PM 42.4460 -84.4490 92° East 454 522 39,000  Level FlightAware
06:40PM 42.4430 -84.3420 92° East 452 520 39,000  Level FlightAware
06:40PM 42.4400 -84.2560 93° East 450 518 39,000  Level FlightAware
06:41PM 42.4360 -84.1280 92° East 446 513 39,000  Level FlightAware
06:41PM 42.4320 -84.0280 93° East 443 510 39,000  Level FlightAware
06:42PM 42.4290 -83.9300 92° East 439 505 39,000  Level FlightAware
06:43PM 42.4260 -83.8370 92° East 437 503 39,000  Level FlightAware
06:43PM 42.4220 -83.7390 93° East 434 499 39,000  Level FlightAware
06:44PM 42.4180 -83.6420 93° East 432 497 39,000  Level FlightAware
06:44PM 42.4150 -83.5440 92° East 430 495 39,000  Level FlightAware
06:45PM 42.4110 -83.4580 94° East 429 494 39,000  Level FlightAware
06:46PM 42.4080 -83.3670 93° East 428 493 39,000  Level FlightAware
06:46PM 42.4040 -83.2670 93° East 427 491 39,000  Level FlightAware
06:47PM 42.4000 -83.1720 93° East 426 490 39,000  Level FlightAware
06:47PM 42.3960 -83.0850 94° East 426 490 39,000  Level FlightAware
06:48PM 42.3920 -82.9920 93° East 426 490 39,000  Level FlightAware
06:48PM 42.3880 -82.9020 93° East 425 489 39,000  Level FlightAware
06:49PM 42.3830 -82.8010 94° East 425 489 39,000  Level FlightAware
06:50PM 42.3800 -82.7140 93° East 424 488 39,000  Level FlightAware
06:50PM 42.3760 -82.6250 93° East 423 487 39,000  Level FlightAware
06:51PM 42.3720 -82.5280 93° East 424 488 39,000  Level FlightAware
06:51PM 42.3690 -82.4340 92° East 425 489 39,000  Level FlightAware
06:52PM 42.3650 -82.3370 93° East 426 490 39,000  Level FlightAware
06:53PM 42.3610 -82.2510 94° East 427 491 39,000  Level FlightAware
06:53PM 42.3570 -82.1570 93° East 427 491 39,000  Level FlightAware
06:54PM 42.3540 -82.0790 93° East 430 495 39,000  Level FlightAware
06:54PM 42.3500 -81.9800 93° East 430 495 39,000  Level FlightAware
06:55PM 42.3440 -81.8630 94° East 431 496 39,000  Level FlightAware
06:56PM 42.3400 -81.7660 93° East 431 496 39,000  Level FlightAware
06:56PM 42.3340 -81.6400 94° East 432 497 39,000  Level FlightAware
06:57PM 42.3300 -81.5590 94° East 431 496 39,000  Level FlightAware
06:58PM 42.3260 -81.4680 93° East 431 496 39,000  Level FlightAware
06:58PM 42.3210 -81.3680 94° East 432 497 39,000  Level FlightAware
06:59PM 42.3170 -81.2750 93° East 433 498 39,000  Level FlightAware
06:59PM 42.3120 -81.1730 94° East 435 501 39,000  Level FlightAware
07:00PM 42.3070 -81.0890 95° East 440 506 39,000  Level FlightAware
07:00PM 42.3020 -80.9970 94° East 444 511 39,000  Level FlightAware
07:01PM 42.2980 -80.9030 93° East 446 513 39,000  Level FlightAware
07:02PM 42.2870 -80.7950 98° East 455 524 39,000  Level FlightAware
07:02PM 42.2750 -80.7080 101° East 459 528 39,000  Level FlightAware
07:03PM 42.2580 -80.6010 102° East 459 528 39,000  Level FlightAware
07:03PM 42.2420 -80.4950 101° East 461 531 39,000  Level FlightAware
07:04PM 42.2280 -80.4020 101° East 462 532 39,000  Level FlightAware
07:05PM 42.2120 -80.2940 101° East 462 532 39,000  Level FlightAware
07:05PM 42.1950 -80.1890 102° East 463 533 39,000  Level FlightAware
07:06PM 42.1790 -80.0810 101° East 464 534 39,000  Level FlightAware
07:06PM 42.1660 -79.9980 102° East 465 535 39,000  Level FlightAware
07:07PM 42.1510 -79.9040 102° East 466 536 39,000 -600 Level FlightAware
07:08PM 42.1320 -79.7890 103° East 467 537 38,300 -1,200 Descending FlightAware
07:08PM 42.1180 -79.6980 102° East 475 547 37,600 -1,080 Descending FlightAware
07:09PM 42.1040 -79.6150 103° East 476 548 37,200 -480 Descending FlightAware
07:09PM 42.0800 -79.4630 102° East 470 541 37,000 -180 Descending FlightAware
07:10PM 42.0610 -79.3500 103° East 469 540 37,000  Level FlightAware
07:11PM 42.0450 -79.2480 102° East 473 544 37,000  Level FlightAware
07:11PM 42.0280 -79.1440 102° East 474 545 37,000 -120 Level FlightAware
07:12PM 42.0120 -79.0520 103° East 472 543 36,900 -480 Descending FlightAware
07:12PM 41.9950 -78.9480 102° East 466 536 36,500 -660 Descending FlightAware
07:13PM 41.9780 -78.8450 102° East 461 531 36,100 -540 Descending FlightAware
07:14PM 41.9620 -78.7540 103° East 455 524 35,900 -1,020 Descending FlightAware
07:14PM 41.9460 -78.6550 102° East 453 521 35,000 -1,620 Descending FlightAware
07:15PM 41.9290 -78.5560 103° East 456 525 34,000 -1,620 Descending FlightAware
07:15PM 41.9120 -78.4550 103° East 469 540 33,100 -900 Descending FlightAware
07:16PM 41.8970 -78.3720 104° East 481 554 33,000 -120 Descending FlightAware
07:17PM 41.8780 -78.2620 103° East 484 557 33,000  Level FlightAware
07:17PM 41.8580 -78.1500 103° East 483 556 33,000  Level FlightAware
07:18PM 41.8440 -78.0680 103° East 483 556 33,000  Level FlightAware
07:19PM 41.8180 -77.9210 103° East 484 557 33,000  Level FlightAware
07:19PM 41.7990 -77.8120 103° East 484 557 33,000  Level FlightAware
07:20PM 41.7830 -77.7250 104° East 484 557 33,000  Level FlightAware
07:20PM 41.7620 -77.6090 104° East 484 557 33,000  Level FlightAware
07:21PM 41.7440 -77.5070 103° East 484 557 33,000  Level FlightAware
07:21PM 41.7280 -77.4220 104° East 484 557 33,000  Level FlightAware
07:22PM 41.7070 -77.3070 104° East 483 556 33,000  Level FlightAware
07:23PM 41.6880 -77.2020 104° East 483 556 33,000  Level FlightAware
07:23PM 41.6700 -77.1190 106° East 486 559 33,000  Level FlightAware
07:24PM 41.6430 -77.0190 110° East 487 560 33,000  Level FlightAware
07:24PM 41.6130 -76.9080 110° East 486 559 33,000  Level FlightAware
07:25PM 41.5890 -76.8210 110° East 485 558 33,000 -300 Level FlightAware
07:25PM 41.5620 -76.7220 110° East 485 558 32,700 -900 Descending FlightAware
07:26PM 41.5360 -76.6270 110° East 493 567 32,000 -1,080 Descending FlightAware
07:27PM 41.5070 -76.5240 111° Southeast 495 570 31,500 -900 Descending FlightAware
07:27PM 41.4770 -76.4160 110° East 496 571 30,900 -1,020 Descending FlightAware
07:27PM 41.4662 -76.3755 110° East 497 572 30,700 -1,080 Descending FlightAware ADS-B
07:28PM 41.4416 -76.2872 110° East 498 573 30,200 -1,020 Descending FlightAware ADS-B
07:28PM 41.4172 -76.2000 110° East 498 573 29,700 -960 Descending FlightAware ADS-B
07:29PM 41.3914 -76.1079 110° East 501 577 29,200 -1,020 Descending FlightAware ADS-B
07:29PM 41.3665 -76.0194 111° Southeast 500 575 28,700 -960 Descending FlightAware ADS-B
07:30PM 41.3400 -75.9255 111° Southeast 500 575 28,200 -900 Descending FlightAware ADS-B
07:31PM 41.3150 -75.8372 111° Southeast 498 573 27,800 -840 Descending FlightAware ADS-B
07:31PM 41.2906 -75.7515 111° Southeast 495 570 27,400 -720 Descending FlightAware ADS-B
07:32PM 41.2647 -75.6657 112° Southeast 494 568 27,100 -840 Descending FlightAware ADS-B
07:32PM 41.2372 -75.5819 114° Southeast 492 566 26,600 -1,320 Descending FlightAware ADS-B
07:33PM 41.2089 -75.4974 114° Southeast 491 565 25,800 -2,100 Descending FlightAware ADS-B
07:33PM 41.1812 -75.4151 114° Southeast 488 562 24,500 -2,460 Descending FlightAware ADS-B
07:34PM 41.1539 -75.3334 114° Southeast 479 551 23,300 -1,500 Descending FlightAware ADS-B
07:34PM 41.1258 -75.2502 114° Southeast 474 545 23,000 -300 Descending FlightAware ADS-B
07:35PM 41.0965 -75.1638 114° Southeast 460 529 23,000 -420 Level FlightAware ADS-B
07:35PM 41.0704 -75.0872 114° Southeast 430 495 22,600 -600 Descending FlightAware ADS-B
07:36PM 41.0470 -75.0189 114° Southeast 385 443 22,400 -540 Descending FlightAware ADS-B
07:36PM 41.0242 -74.9522 114° Southeast 370 426 22,100 -480 Descending FlightAware ADS-B
07:37PM 41.0072 -74.9017 114° Southeast 367 422 22,000 -180 Descending FlightAware ADS-B
07:37PM 41.0011 -74.8787 109° East 366 421 22,000  Level FlightAware ADS-B
07:37PM 40.9986 -74.8617 101° East 363 418 22,000  Level FlightAware ADS-B
07:37PM 40.9980 -74.8484 93° East 359 413 22,000  Level FlightAware ADS-B
07:37PM 40.9981 -74.8394 89° East 356 410 22,000 -480 Level FlightAware ADS-B
07:37PM 40.9999 -74.8217 82° East 352 405 21,900 -1,140 Descending FlightAware ADS-B
07:37PM 41.0034 -74.8055 74° East 350 403 21,700 -1,200 Descending FlightAware ADS-B
07:37PM 41.0047 -74.8005 71° East 347 399 21,700  Level FlightAware ADS-B
07:38PM 41.0089 -74.7860 69° East 343 395 21,700 -600 Level FlightAware ADS-B
07:38PM 41.0233 -74.7394 68° East 342 394 21,400 -720 Descending FlightAware ADS-B
07:39PM 41.0446 -74.6719 67° East 338 389 21,000 -420 Descending FlightAware ADS-B
07:39PM 41.0627 -74.6144 67° East 340 391 21,000  Level FlightAware ADS-B
07:40PM 41.0814 -74.5547 67° East 341 392 21,000  Level FlightAware ADS-B
07:40PM 41.0999 -74.4958 67° East 340 391 21,000  Level FlightAware ADS-B
07:41PM 41.1175 -74.4387 68° East 341 392 21,000  Level FlightAware ADS-B
07:41PM 41.1190 -74.4323 73° East 343 395 21,000  Level FlightAware ADS-B
07:41PM 41.1208 -74.4205 79° East 347 399 21,000  Level FlightAware ADS-B
07:41PM 41.1214 -74.4131 84° East 349 402 21,000  Level FlightAware ADS-B
07:41PM 41.1210 -74.3920 91° East 355 409 21,000  Level FlightAware ADS-B
07:41PM 41.1176 -74.3715 102° East 361 415 21,000 -420 Level FlightAware ADS-B
07:41PM 41.1135 -74.3583 112° Southeast 363 418 20,900 -720 Descending FlightAware ADS-B
07:41PM 41.1033 -74.3374 123° Southeast 366 421 20,800 -960 Descending FlightAware ADS-B
07:41PM 41.0940 -74.3250 135° Southeast 367 422 20,600 -1,500 Descending FlightAware ADS-B
07:42PM 41.0498 -74.2773 141° Southeast 363 418 19,800 -1,440 Descending FlightAware ADS-B
07:43PM 41.0094 -74.2353 142° Southeast 358 412 19,100 -840 Descending FlightAware ADS-B
07:43PM 40.9704 -74.1943 142° Southeast 358 412 19,000 -120 Descending FlightAware ADS-B
07:44PM 40.9359 -74.1579 141° Southeast 360 414 19,000  Level FlightAware ADS-B
07:44PM 40.9211 -74.1449 146° Southeast 361 415 19,000  Level FlightAware ADS-B
07:44PM 40.9108 -74.1386 155° Southeast 362 417 19,000  Level FlightAware ADS-B
07:44PM 40.9095 -74.1380 161° South 361 415 19,000  Level FlightAware ADS-B
07:44PM 40.8971 -74.1329 163° South 362 417 19,000  Level FlightAware ADS-B
07:44PM 40.8879 -74.1299 166° South 362 417 19,000 -240 Level FlightAware ADS-B
07:44PM 40.8462 -74.1175 167° South 364 419 18,900 -420 Descending FlightAware ADS-B
07:45PM 40.8347 -74.1141 167° South 363 418 18,800 -1,560 Descending FlightAware ADS-B
07:45PM 40.7960 -74.1028 168° South 355 409 18,100 -2,160 Descending FlightAware ADS-B
07:45PM 40.7846 -74.0995 168° South 354 407 17,700 -2,820 Descending FlightAware ADS-B
07:45PM 40.7478 -74.0885 167° South 350 403 16,700 -2,520 Descending FlightAware ADS-B
07:46PM 40.7121 -74.0777 167° South 346 398 15,800 -2,280 Descending FlightAware ADS-B
07:46PM 40.6981 -74.0734 167° South 344 396 15,500 -2,040 Descending FlightAware ADS-B
07:47PM 40.6518 -74.0592 167° South 334 384 14,500 -1,920 Descending FlightAware ADS-B
07:47PM 40.6074 -74.0454 167° South 322 371 13,600 -1,740 Descending FlightAware ADS-B
07:48PM 40.5593 -74.0312 167° South 320 368 12,700 -960 Descending FlightAware ADS-B
07:48PM 40.5184 -74.0193 168° South 283 326 12,600 -180 Descending FlightAware ADS-B
07:48PM 40.5062 -74.0158 168° South 274 315 12,600  Level FlightAware ADS-B
07:48PM 40.4996 -74.0135 165° South 271 312 12,600  Level FlightAware ADS-B
07:48PM 40.4938 -74.0105 159° South 269 310 12,600  Level FlightAware ADS-B
07:49PM 40.4598 -73.9857 151° Southeast 269 310 12,600 -300 Level FlightAware ADS-B
07:49PM 40.4272 -73.9608 150° Southeast 264 304 12,300 -1,200 Descending FlightAware ADS-B
07:50PM 40.3959 -73.9365 149° Southeast 258 297 11,400 -1,920 Descending FlightAware ADS-B
07:50PM 40.3648 -73.9124 149° Southeast 256 295 10,400 -1,800 Descending FlightAware ADS-B
07:51PM 40.3485 -73.8998 149° Southeast 254 292 10,000 -1,320 Descending FlightAware ADS-B
07:51PM 40.3320 -73.8873 150° Southeast 252 290 9,700 -1,380 Descending FlightAware ADS-B
07:51PM 40.3166 -73.8756 150° Southeast 251 289 9,300 -1,320 Descending FlightAware ADS-B
07:52PM 40.2999 -73.8633 151° Southeast 248 285 9,000 -1,500 Descending FlightAware ADS-B
07:52PM 40.2846 -73.8521 151° Southeast 244 281 8,500 -1,800 Descending FlightAware ADS-B
07:52PM 40.2696 -73.8409 150° Southeast 244 281 8,100 -1,440 Descending FlightAware ADS-B
07:52PM 40.2546 -73.8295 150° Southeast 243 280 7,800 -1,200 Descending FlightAware ADS-B
07:52PM 40.2490 -73.8248 147° Southeast 242 278 7,700 -1,140 Descending FlightAware ADS-B
07:52PM 40.2451 -73.8204 139° Southeast 241 277 7,600 -780 Descending FlightAware ADS-B
07:53PM 40.2427 -73.8169 132° Southeast 238 274 7,600  Level FlightAware ADS-B
07:53PM 40.2376 -73.8045 118° Southeast 238 274 7,600  Level FlightAware ADS-B
07:53PM 40.2361 -73.7937 100° East 236 272 7,600  Level FlightAware ADS-B
07:53PM 40.2363 -73.7858 88° East 235 270 7,600  Level FlightAware ADS-B
07:53PM 40.2379 -73.7722 81° East 234 269 7,600  Level FlightAware ADS-B
07:53PM 40.2396 -73.7646 74° East 234 269 7,600  Level FlightAware ADS-B
07:53PM 40.2432 -73.7556 62° Northeast 232 267 7,600  Level FlightAware ADS-B
07:53PM 40.2465 -73.7498 53° Northeast 229 264 7,600  Level FlightAware ADS-B
07:54PM 40.2554 -73.7363 49° Northeast 229 264 7,600  Level FlightAware ADS-B
07:54PM 40.2694 -73.7158 48° Northeast 228 262 7,600 -480 Level FlightAware ADS-B
07:54PM 40.2829 -73.6962 48° Northeast 224 258 7,300 -960 Descending FlightAware ADS-B
07:54PM 40.2884 -73.6895 43° Northeast 224 258 7,200 -840 Descending FlightAware ADS-B
07:54PM 40.2946 -73.6841 34° Northeast 222 255 7,100 -1,200 Descending FlightAware ADS-B
07:55PM 40.3052 -73.6760 30° Northeast 221 254 6,800 -1,140 Descending FlightAware ADS-B
07:55PM 40.3191 -73.6663 28° Northeast 220 253 6,600 -420 Descending FlightAware ADS-B
07:55PM 40.3346 -73.6556 28° Northeast 221 254 6,600  Level FlightAware ADS-B
07:56PM 40.3507 -73.6446 28° Northeast 221 254 6,600  Level FlightAware ADS-B
07:56PM 40.3647 -73.6349 28° Northeast 221 254 6,600  Level FlightAware ADS-B
07:56PM 40.3782 -73.6256 28° Northeast 221 254 6,600  Level FlightAware ADS-B
07:56PM 40.3923 -73.6160 27° Northeast 219 252 6,600  Level FlightAware ADS-B
07:57PM 40.4081 -73.6050 28° Northeast 220 253 6,600  Level FlightAware ADS-B
07:57PM 40.4339 -73.5869 28° Northeast 220 253 6,600  Level FlightAware ADS-B
07:57PM 40.4528 -73.5738 28° Northeast 220 253 6,600  Level FlightAware ADS-B
07:58PM 40.4680 -73.5632 28° Northeast 221 254 6,600  Level FlightAware ADS-B
07:58PM 40.4924 -73.5461 28° Northeast 222 255 6,600  Level FlightAware ADS-B
07:58PM 40.5110 -73.5332 28° Northeast 223 257 6,600 -720 Level FlightAware ADS-B
07:59PM 40.5412 -73.5131 27° Northeast 219 252 6,000 -1,080 Descending FlightAware ADS-B
07:59PM 40.5546 -73.5109 North 219 252 5,800 -1,200 Descending FlightAware ADS-B
07:59PM 40.5625 -73.5116 356° North 219 252 5,600 -1,500 Descending FlightAware ADS-B
08:00PM 40.5990 -73.5170 354° North 222 255 4,700 -1,500 Descending FlightAware
08:00PM 40.6110 -73.5180 356° North 221 254 4,400 -1,200 Descending FlightAware
08:01PM 40.6360 -73.5210 355° North 218 251 4,000 -1,140 Descending FlightAware
08:01PM 40.6440 -73.5250 339° North 216 249 3,800 -1,320 Descending FlightAware
08:01PM 40.6600 -73.5390 326° Northwest 213 245 3,400 -1,140 Descending FlightAware
08:01PM 40.6790 -73.5570 324° Northwest 214 246 3,000 -1,020 Descending FlightAware
08:02PM 40.6940 -73.5710 325° Northwest 216 249 2,700 -960 Descending FlightAware
08:02PM 40.7110 -73.5860 326° Northwest 209 241 2,400 -720 Descending FlightAware
08:03PM 40.7300 -73.6030 326° Northwest 199 229 2,200 -600 Descending FlightAware
08:03PM 40.7440 -73.6160 325° Northwest 190 219 2,000 -600 Descending FlightAware
08:03PM 40.7530 -73.6240 326° Northwest 188 216 1,900 -600 Descending FlightAware
08:03PM 40.7570 -73.6310 307° West 186 214 1,800 -780 Descending FlightAware
08:03PM 40.7580 -73.6400 278° West 184 212 1,700 -360 Descending FlightAware
08:04PM 40.7500 -73.6690 250° West 185 213 1,600 -180 Descending FlightAware
08:04PM 40.7360 -73.6830 217° Southwest 184 212 1,600 -300 Level FlightAware
08:04PM 40.7230 -73.6940 213° Southwest 182 209 1,400 -780 Descending FlightAware
08:05PM 40.7090 -73.7050 211° Southwest 171 197 1,100 -840 Descending FlightAware
08:05PM 40.6930 -73.7170 210° Southwest 150 173 800 -840 Descending FlightAware
08:06PM 40.6820 -73.7260 212° Southwest 133 153 500 -780 Descending FlightAware
08:06PM 40.6710 -73.7350 212° Southwest 128 147 300 -600 Descending FlightAware
08:06PM 40.6570 -73.7450 208° Southwest 126 145 -720 Descending FlightAware
08:07PM 40.6460 -73.7540 212° Southwest 127 146  Level FlightAware
08:07PM 40.6360 -73.7620 211° Southwest 92 106  Level FlightAware